Wetterstation Vordersexau
Wetterdaten: Woche 20.02.23 - 26.02.23 (KW8)
Datum Zeit Temp. A. Feuchte A. Luftdruck Regen Wind Richtung Taupunkt Windchill Windben
20.02.2023 00:00 7,2 C 89 % 1025,8 hPa 0,0 l/m 1,1 km/h (1 Bft) W 5,5 C 7,2 C 3,6 km/h (1 Bft)
20.02.2023 01:00 6,5 C 91 % 1025,8 hPa 0,0 l/m 1,1 km/h (1 Bft) N 5,1 C 6,5 C 2,5 km/h (1 Bft)
20.02.2023 02:00 5,4 C 93 % 1025,7 hPa 0,0 l/m 0,0 km/h (0 Bft) N 4,4 C 5,4 C 2,5 km/h (1 Bft)
20.02.2023 03:00 4,2 C 94 % 1025,5 hPa 0,0 l/m 0,0 km/h (0 Bft) W 3,3 C 4,2 C 0,0 km/h (0 Bft)
20.02.2023 04:00 3,3 C 95 % 1025,2 hPa 0,0 l/m 1,1 km/h (1 Bft) N 2,6 C 3,3 C 2,5 km/h (1 Bft)
20.02.2023 05:00 2,4 C 96 % 1025,0 hPa 0,0 l/m 0,0 km/h (0 Bft) N 1,8 C 2,4 C 0,0 km/h (0 Bft)
20.02.2023 06:00 1,7 C 96 % 1024,7 hPa 0,0 l/m 0,0 km/h (0 Bft) N 1,1 C 1,7 C 2,5 km/h (1 Bft)
20.02.2023 07:00 1,9 C 97 % 1024,6 hPa 0,0 l/m 0,0 km/h (0 Bft) N 1,5 C 1,9 C 2,5 km/h (1 Bft)
20.02.2023 08:00 2,8 C 95 % 1024,7 hPa 0,0 l/m 0,0 km/h (0 Bft) S-SO 2,1 C 2,8 C 2,5 km/h (1 Bft)
20.02.2023 09:00 6,5 C 85 % 1024,9 hPa 0,0 l/m 3,6 km/h (1 Bft) N 4,2 C 6,5 C 6,1 km/h (2 Bft)
20.02.2023 10:00 10,0 C 75 % 1024,5 hPa 0,0 l/m 0,0 km/h (0 Bft) W 5,8 C 10,0 C 2,5 km/h (1 Bft)
20.02.2023 11:00 11,5 C 64 % 1024,1 hPa 0,0 l/m 2,5 km/h (1 Bft) W-SW 4,9 C 11,5 C 3,6 km/h (1 Bft)
20.02.2023 12:00 12,7 C 64 % 1023,4 hPa 0,0 l/m 1,1 km/h (1 Bft) W 6,1 C 12,7 C 2,5 km/h (1 Bft)
20.02.2023 13:00 14,4 C 59 % 1021,9 hPa 0,0 l/m 1,1 km/h (1 Bft) W-SW 6,5 C 14,4 C 3,6 km/h (1 Bft)
20.02.2023 14:00 15,4 C 54 % 1021,7 hPa 0,0 l/m 2,5 km/h (1 Bft) W 6,1 C 15,4 C 3,6 km/h (1 Bft)
20.02.2023 15:00 16,0 C 50 % 1020,5 hPa 0,0 l/m 2,5 km/h (1 Bft) W 5,6 C 16,0 C 6,1 km/h (2 Bft)
20.02.2023 16:00 16,5 C 47 % 1020,0 hPa 0,0 l/m 1,1 km/h (1 Bft) N 5,2 C 16,5 C 2,5 km/h (1 Bft)
20.02.2023 17:00 14,9 C 48 % 1019,8 hPa 0,0 l/m 0,0 km/h (0 Bft) W 4,0 C 14,9 C 0,0 km/h (0 Bft)
20.02.2023 18:00 9,3 C 73 % 1020,0 hPa 0,0 l/m 1,1 km/h (1 Bft) S-SO 4,7 C 9,3 C 2,5 km/h (1 Bft)
20.02.2023 19:00 7,1 C 81 % 1020,1 hPa 0,0 l/m 1,1 km/h (1 Bft) S-SO 4,1 C 7,1 C 2,5 km/h (1 Bft)
20.02.2023 20:00 6,0 C 82 % 1019,7 hPa 0,0 l/m 1,1 km/h (1 Bft) S-SO 3,2 C 6,0 C 2,5 km/h (1 Bft)
20.02.2023 21:00 5,4 C 83 % 1019,3 hPa 0,0 l/m 1,1 km/h (1 Bft) N 2,7 C 5,4 C 2,5 km/h (1 Bft)
20.02.2023 22:00 3,9 C 86 % 1019,2 hPa 0,0 l/m 0,0 km/h (0 Bft) N 1,8 C 3,9 C 0,0 km/h (0 Bft)
20.02.2023 23:00 4,3 C 84 % 1019,3 hPa 0,0 l/m 0,0 km/h (0 Bft) S-SO 1,8 C 4,3 C 0,0 km/h (0 Bft)
21.02.2023 00:00 4,1 C 84 % 1019,0 hPa 0,0 l/m 1,1 km/h (1 Bft) O-SO 1,6 C 4,1 C 3,6 km/h (1 Bft)
21.02.2023 01:00 3,2 C 86 % 1018,8 hPa 0,0 l/m 2,5 km/h (1 Bft) N 1,1 C 3,2 C 3,6 km/h (1 Bft)
21.02.2023 02:00 3,2 C 85 % 1018,4 hPa 0,0 l/m 0,0 km/h (0 Bft) SO 0,9 C 3,2 C 2,5 km/h (1 Bft)
21.02.2023 03:00 2,5 C 87 % 1017,8 hPa 0,0 l/m 1,1 km/h (1 Bft) N 0,6 C 2,5 C 3,6 km/h (1 Bft)
21.02.2023 04:00 2,4 C 88 % 1017,6 hPa 0,0 l/m 0,0 km/h (0 Bft) N 0,6 C 2,4 C 2,5 km/h (1 Bft)
21.02.2023 05:00 0,9 C 91 % 1017,8 hPa 0,0 l/m 0,0 km/h (0 Bft) SO -0,4 C 0,9 C 0,0 km/h (0 Bft)
21.02.2023 06:00 1,7 C 89 % 1017,6 hPa 0,0 l/m 6,1 km/h (2 Bft) N 0,1 C 1,7 C 7,2 km/h (2 Bft)
21.02.2023 07:00 0,2 C 94 % 1017,6 hPa 0,0 l/m 0,0 km/h (0 Bft) SO -0,6 C 0,2 C 2,5 km/h (1 Bft)
21.02.2023 08:00 1,7 C 91 % 1017,9 hPa 0,0 l/m 2,5 km/h (1 Bft) SO 0,4 C 1,7 C 2,5 km/h (1 Bft)
21.02.2023 09:00 6,6 C 77 % 1017,8 hPa 0,0 l/m 7,2 km/h (2 Bft) SO 2,9 C 5,9 C 9,7 km/h (2 Bft)
21.02.2023 10:00 10,5 C 66 % 1017,5 hPa 0,0 l/m 1,1 km/h (1 Bft) SO 4,4 C 10,5 C 2,5 km/h (1 Bft)
21.02.2023 11:00 11,8 C 61 % 1016,9 hPa 0,0 l/m 2,5 km/h (1 Bft) S-SW 4,5 C 11,8 C 3,6 km/h (1 Bft)
21.02.2023 12:00 13,9 C 59 % 1016,0 hPa 0,0 l/m 3,6 km/h (1 Bft) SW 6,0 C 13,9 C 7,2 km/h (2 Bft)
21.02.2023 13:00 14,8 C 53 % 1015,0 hPa 0,0 l/m 2,5 km/h (1 Bft) SW 5,3 C 14,8 C 6,1 km/h (2 Bft)
21.02.2023 14:00 16,2 C 49 % 1013,7 hPa 0,0 l/m 3,6 km/h (1 Bft) SW 5,5 C 16,2 C 6,1 km/h (2 Bft)
21.02.2023 15:00 17,1 C 47 % 1012,6 hPa 0,0 l/m 2,5 km/h (1 Bft) SW 5,7 C 17,1 C 3,6 km/h (1 Bft)
21.02.2023 16:00 15,7 C 54 % 1012,3 hPa 0,0 l/m 3,6 km/h (1 Bft) N 6,4 C 15,7 C 6,1 km/h (2 Bft)
21.02.2023 17:00 14,2 C 54 % 1011,9 hPa 0,0 l/m 0,0 km/h (0 Bft) SW 5,0 C 14,2 C 0,0 km/h (0 Bft)
21.02.2023 18:00 10,3 C 66 % 1012,4 hPa 0,0 l/m 1,1 km/h (1 Bft) SW 4,2 C 10,3 C 2,5 km/h (1 Bft)
21.02.2023 19:00 8,3 C 73 % 1012,2 hPa 0,0 l/m 1,1 km/h (1 Bft) N 3,8 C 8,3 C 2,5 km/h (1 Bft)
21.02.2023 20:00 6,3 C 79 % 1011,9 hPa 0,0 l/m 0,0 km/h (0 Bft) SO 2,9 C 6,3 C 2,5 km/h (1 Bft)
21.02.2023 21:00 5,4 C 81 % 1012,5 hPa 0,0 l/m 1,1 km/h (1 Bft) SO 2,4 C 5,4 C 2,5 km/h (1 Bft)
21.02.2023 22:00 3,9 C 84 % 1012,7 hPa 0,0 l/m 2,5 km/h (1 Bft) SO 1,4 C 3,9 C 2,5 km/h (1 Bft)
21.02.2023 23:00 3,1 C 86 % 1012,3 hPa 0,0 l/m 1,1 km/h (1 Bft) O-SO 1,0 C 3,1 C 2,5 km/h (1 Bft)
22.02.2023 00:00 2,9 C 87 % 1012,2 hPa 0,0 l/m 1,1 km/h (1 Bft) O-SO 1,0 C 2,9 C 2,5 km/h (1 Bft)
22.02.2023 01:00 2,5 C 87 % 1012,0 hPa 0,0 l/m 2,5 km/h (1 Bft) N 0,6 C 2,5 C 3,6 km/h (1 Bft)
22.02.2023 02:00 1,6 C 89 % 1011,6 hPa 0,0 l/m 0,0 km/h (0 Bft) N -0,0 C 1,6 C 0,0 km/h (0 Bft)
22.02.2023 03:00 0,9 C 91 % 1011,4 hPa 0,0 l/m 0,0 km/h (0 Bft) O-SO -0,4 C 0,9 C 2,5 km/h (1 Bft)
22.02.2023 04:00 0,5 C 92 % 1011,2 hPa 0,0 l/m 2,5 km/h (1 Bft) O-SO -0,6 C 0,5 C 3,6 km/h (1 Bft)
22.02.2023 05:00 1,2 C 92 % 1010,8 hPa 0,0 l/m 1,1 km/h (1 Bft) N 0,0 C 1,2 C 3,6 km/h (1 Bft)
22.02.2023 06:00 1,5 C 90 % 1010,4 hPa 0,0 l/m 0,0 km/h (0 Bft) N 0,0 C 1,5 C 2,5 km/h (1 Bft)
22.02.2023 07:00 1,7 C 91 % 1010,7 hPa 0,0 l/m 0,0 km/h (0 Bft) O-SO 0,4 C 1,7 C 0,0 km/h (0 Bft)
22.02.2023 08:00 2,3 C 89 % 1010,7 hPa 0,0 l/m 1,1 km/h (1 Bft) SO 0,7 C 2,3 C 2,5 km/h (1 Bft)
22.02.2023 09:00 7,0 C 78 % 1010,6 hPa 0,0 l/m 2,5 km/h (1 Bft) SO 3,4 C 7,0 C 6,1 km/h (2 Bft)
22.02.2023 10:00 9,1 C 74 % 1010,5 hPa 0,0 l/m 6,1 km/h (2 Bft) SW 4,7 C 9,1 C 7,2 km/h (2 Bft)
22.02.2023 11:00 12,8 C 72 % 1010,0 hPa 0,0 l/m 9,7 km/h (2 Bft) W-SW 7,9 C 10,8 C 17,3 km/h (3 Bft)
22.02.2023 12:00 12,9 C 72 % 1009,8 hPa 0,0 l/m 8,6 km/h (2 Bft) W-SW 8,0 C 11,5 C 14,8 km/h (3 Bft)
22.02.2023 13:00 12,4 C 73 % 1009,6 hPa 0,0 l/m 12,2 km/h (2 Bft) W-SW 7,7 C 9,2 C 17,3 km/h (3 Bft)
22.02.2023 14:00 12,9 C 73 % 1009,6 hPa 0,0 l/m 8,6 km/h (2 Bft) SW 8,2 C 11,5 C 11,2 km/h (2 Bft)
22.02.2023 15:00 12,7 C 74 % 1009,5 hPa 0,0 l/m 7,2 km/h (2 Bft) W-SW 8,2 C 12,2 C 9,7 km/h (2 Bft)
22.02.2023 16:00 12,1 C 78 % 1086,4 hPa 0,0 l/m 2,5 km/h (1 Bft) W-SW 8,4 C 12,1 C 2,5 km/h (1 Bft)
22.02.2023 17:00 11,7 C 79 % 1009,6 hPa 0,0 l/m 5,0 km/h (1 Bft) SW 8,2 C 11,7 C 7,2 km/h (2 Bft)
22.02.2023 18:00 11,7 C 79 % 1010,0 hPa 0,0 l/m 3,6 km/h (1 Bft) W-SW 8,2 C 11,7 C 6,1 km/h (2 Bft)
22.02.2023 19:00 10,9 C 85 % 1010,3 hPa 0,0 l/m 8,6 km/h (2 Bft) N 8,5 C 9,4 C 14,8 km/h (3 Bft)
22.02.2023 20:00 10,1 C 90 % 1010,3 hPa 0,0 l/m 0,0 km/h (0 Bft) N 8,5 C 10,1 C 0,0 km/h (0 Bft)
22.02.2023 21:00 9,5 C 94 % 1010,2 hPa 0,6 l/m 0,0 km/h (0 Bft) SO 8,6 C 9,5 C 2,5 km/h (1 Bft)
22.02.2023 22:00 10,1 C 90 % 1010,2 hPa 0,0 l/m 3,6 km/h (1 Bft) SW 8,5 C 10,1 C 6,1 km/h (2 Bft)
22.02.2023 23:00 10,3 C 88 % 1010,0 hPa 0,3 l/m 6,1 km/h (2 Bft) SO 8,4 C 10,3 C 9,7 km/h (2 Bft)
23.02.2023 00:00 10,0 C 88 % 1009,7 hPa 0,0 l/m 3,6 km/h (1 Bft) SO 8,1 C 10,0 C 6,1 km/h (2 Bft)
23.02.2023 01:00 9,9 C 87 % 1009,9 hPa 0,0 l/m 1,1 km/h (1 Bft) S 7,8 C 9,9 C 2,5 km/h (1 Bft)
23.02.2023 02:00 8,9 C 93 % 1009,7 hPa 0,0 l/m 1,1 km/h (1 Bft) N 7,8 C 8,9 C 2,5 km/h (1 Bft)
23.02.2023 03:00 8,2 C 96 % 1009,3 hPa 0,0 l/m 0,0 km/h (0 Bft) N 7,6 C 8,2 C 2,5 km/h (1 Bft)
23.02.2023 04:00 8,2 C 97 % 1009,1 hPa 0,0 l/m 0,0 km/h (0 Bft) N 7,8 C 8,2 C 2,5 km/h (1 Bft)
23.02.2023 05:00 7,9 C 97 % 1009,1 hPa 0,0 l/m 0,0 km/h (0 Bft) O 7,5 C 7,9 C 2,5 km/h (1 Bft)
23.02.2023 06:00 7,7 C 98 % 1008,9 hPa 0,0 l/m 1,1 km/h (1 Bft) N 7,4 C 7,7 C 6,1 km/h (2 Bft)
23.02.2023 07:00 7,9 C 98 % 1009,2 hPa 0,0 l/m 0,0 km/h (0 Bft) O 7,6 C 7,9 C 0,0 km/h (0 Bft)
23.02.2023 08:00 8,1 C 97 % 1009,6 hPa 0,6 l/m 2,5 km/h (1 Bft) N 7,7 C 8,1 C 6,1 km/h (2 Bft)
23.02.2023 09:00 8,8 C 98 % 1009,8 hPa 0,0 l/m 0,0 km/h (0 Bft) O 8,5 C 8,8 C 0,0 km/h (0 Bft)
23.02.2023 10:00 10,1 C 97 % 1009,8 hPa 0,0 l/m 1,1 km/h (1 Bft) N 9,6 C 10,1 C 2,5 km/h (1 Bft)
23.02.2023 11:00 12,4 C 82 % 1009,8 hPa 0,0 l/m 0,0 km/h (0 Bft) NW 9,4 C 12,4 C 2,5 km/h (1 Bft)
23.02.2023 12:00 13,4 C 79 % 1009,4 hPa 0,0 l/m 5,0 km/h (1 Bft) NW 9,8 C 13,4 C 7,2 km/h (2 Bft)
23.02.2023 13:00 13,7 C 73 % 1008,9 hPa 0,0 l/m 6,1 km/h (2 Bft) NW 8,9 C 13,7 C 11,2 km/h (2 Bft)
23.02.2023 14:00 14,5 C 72 % 1008,6 hPa 0,0 l/m 6,1 km/h (2 Bft) N-NO 9,5 C 14,5 C 9,7 km/h (2 Bft)
23.02.2023 15:00 14,6 C 67 % 1008,6 hPa 0,0 l/m 2,5 km/h (1 Bft) N 8,5 C 14,6 C 3,6 km/h (1 Bft)
23.02.2023 16:00 13,5 C 76 % 1008,7 hPa 0,0 l/m 3,6 km/h (1 Bft) N 9,4 C 13,5 C 7,2 km/h (2 Bft)
23.02.2023 17:00 12,7 C 79 % 1008,5 hPa 0,0 l/m 0,0 km/h (0 Bft) N 9,2 C 12,7 C 2,5 km/h (1 Bft)
23.02.2023 18:00 9,9 C 88 % 1008,9 hPa 0,0 l/m 0,0 km/h (0 Bft) N 8,0 C 9,9 C 2,5 km/h (1 Bft)
23.02.2023 19:00 7,4 C 91 % 1009,4 hPa 0,0 l/m 0,0 km/h (0 Bft) N-NO 6,0 C 7,4 C 2,5 km/h (1 Bft)
23.02.2023 20:00 7,3 C 95 % 1009,4 hPa 0,0 l/m 1,1 km/h (1 Bft) N 6,6 C 7,3 C 2,5 km/h (1 Bft)
23.02.2023 21:00 6,4 C 96 % 1009,3 hPa 0,0 l/m 0,0 km/h (0 Bft) N-NO 5,8 C 6,4 C 0,0 km/h (0 Bft)
23.02.2023 22:00 5,6 C 97 % 1009,3 hPa 0,0 l/m 1,1 km/h (1 Bft) N-NO 5,2 C 5,6 C 2,5 km/h (1 Bft)
23.02.2023 23:00 5,1 C 98 % 1008,9 hPa 0,0 l/m 1,1 km/h (1 Bft) N 4,8 C 5,1 C 2,5 km/h (1 Bft)
24.02.2023 00:00 4,4 C 98 % 1008,8 hPa 0,0 l/m 0,0 km/h (0 Bft) N 4,1 C 4,4 C 2,5 km/h (1 Bft)
24.02.2023 01:00 3,8 C 98 % 1008,6 hPa 0,0 l/m 0,0 km/h (0 Bft) N 3,5 C 3,8 C 0,0 km/h (0 Bft)
24.02.2023 02:00 3,3 C 99 % 1008,3 hPa 0,0 l/m 0,0 km/h (0 Bft) NO 3,2 C 3,3 C 0,0 km/h (0 Bft)
24.02.2023 03:00 2,9 C 99 % 1007,9 hPa 0,0 l/m 1,1 km/h (1 Bft) SO 2,8 C 2,9 C 2,5 km/h (1 Bft)
24.02.2023 04:00 4,9 C 99 % 1007,9 hPa 0,0 l/m 1,1 km/h (1 Bft) O-SO 4,8 C 4,9 C 3,6 km/h (1 Bft)
24.02.2023 05:00 4,9 C 99 % 1007,5 hPa 0,0 l/m 2,5 km/h (1 Bft) O-SO 4,8 C 4,9 C 3,6 km/h (1 Bft)
24.02.2023 06:00 4,9 C 99 % 1006,9 hPa 0,0 l/m 1,1 km/h (1 Bft) N 4,8 C 4,9 C 3,6 km/h (1 Bft)
24.02.2023 07:00 5,3 C 98 % 1006,4 hPa 0,0 l/m 0,0 km/h (0 Bft) N 5,0 C 5,3 C 0,0 km/h (0 Bft)
24.02.2023 08:00 5,9 C 98 % 1006,1 hPa 0,0 l/m 0,0 km/h (0 Bft) N 5,6 C 5,9 C 0,0 km/h (0 Bft)
24.02.2023 09:00 6,8 C 96 % 1005,7 hPa 0,0 l/m 0,0 km/h (0 Bft) N 6,2 C 6,8 C 0,0 km/h (0 Bft)
24.02.2023 10:00 7,6 C 92 % 1005,6 hPa 0,0 l/m 0,0 km/h (0 Bft) N 6,4 C 7,6 C 0,0 km/h (0 Bft)
24.02.2023 11:00 8,7 C 92 % 1004,8 hPa 0,0 l/m 0,0 km/h (0 Bft) N 7,5 C 8,7 C 0,0 km/h (0 Bft)
24.02.2023 12:00 9,5 C 91 % 1004,4 hPa 0,0 l/m 0,0 km/h (0 Bft) N 8,1 C 9,5 C 2,5 km/h (1 Bft)
24.02.2023 13:00 10,2 C 86 % 1003,4 hPa 0,0 l/m 0,0 km/h (0 Bft) SW 8,0 C 10,2 C 2,5 km/h (1 Bft)
24.02.2023 14:00 10,2 C 86 % 1002,6 hPa 0,0 l/m 1,1 km/h (1 Bft) SW 8,0 C 10,2 C 2,5 km/h (1 Bft)
24.02.2023 15:00 10,2 C 85 % 1001,8 hPa 0,0 l/m 2,5 km/h (1 Bft) N 7,8 C 10,2 C 6,1 km/h (2 Bft)
24.02.2023 16:00 10,5 C 85 % 1001,2 hPa 0,0 l/m 0,0 km/h (0 Bft) N 8,1 C 10,5 C 0,0 km/h (0 Bft)
24.02.2023 17:00 10,1 C 85 % 1000,5 hPa 0,0 l/m 0,0 km/h (0 Bft) N 7,7 C 10,1 C 2,5 km/h (1 Bft)
24.02.2023 18:00 9,1 C 90 % 1000,6 hPa 0,0 l/m 0,0 km/h (0 Bft) N 7,5 C 9,1 C 0,0 km/h (0 Bft)
24.02.2023 19:00 8,7 C 95 % 1000,8 hPa 1,5 l/m 0,0 km/h (0 Bft) SW 7,9 C 8,7 C 0,0 km/h (0 Bft)
24.02.2023 20:00 8,2 C 98 % 1000,7 hPa 3,0 l/m 1,1 km/h (1 Bft) SW 7,9 C 8,2 C 2,5 km/h (1 Bft)
24.02.2023 21:00 8,1 C 99 % 1001,0 hPa 3,0 l/m 1,1 km/h (1 Bft) SW 8,0 C 8,1 C 2,5 km/h (1 Bft)
24.02.2023 22:00 7,5 C 99 % 1001,7 hPa 2,7 l/m 1,1 km/h (1 Bft) N 7,4 C 7,5 C 2,5 km/h (1 Bft)
24.02.2023 23:00 6,0 C 92 % 1002,6 hPa 1,5 l/m 0,0 km/h (0 Bft) SO 4,8 C 6,0 C 2,5 km/h (1 Bft)
25.02.2023 00:00 5,3 C 96 % 1002,5 hPa 0,6 l/m 1,1 km/h (1 Bft) SO 4,7 C 5,3 C 6,1 km/h (2 Bft)
25.02.2023 01:00 4,9 C 97 % 1002,6 hPa 0,0 l/m 0,0 km/h (0 Bft) N 4,5 C 4,9 C 0,0 km/h (0 Bft)
25.02.2023 02:00 4,9 C 98 % 1003,0 hPa 0,0 l/m 0,0 km/h (0 Bft) N 4,6 C 4,9 C 0,0 km/h (0 Bft)
25.02.2023 03:00 4,6 C 99 % 1003,5 hPa 0,0 l/m 0,0 km/h (0 Bft) N 4,5 C 4,6 C 2,5 km/h (1 Bft)
25.02.2023 04:00 4,2 C 98 % 1003,8 hPa 0,0 l/m 0,0 km/h (0 Bft) O-SO 3,9 C 4,2 C 0,0 km/h (0 Bft)
25.02.2023 05:00 4,2 C 94 % 1003,8 hPa 0,0 l/m 2,5 km/h (1 Bft) O-SO 3,3 C 4,2 C 3,6 km/h (1 Bft)
25.02.2023 06:00 3,2 C 98 % 1004,1 hPa 0,0 l/m 1,1 km/h (1 Bft) N 2,9 C 3,2 C 2,5 km/h (1 Bft)
25.02.2023 07:00 2,2 C 98 % 1004,3 hPa 0,0 l/m 0,0 km/h (0 Bft) N 1,9 C 2,2 C 2,5 km/h (1 Bft)
25.02.2023 08:00 3,0 C 99 % 1004,9 hPa 0,0 l/m 0,0 km/h (0 Bft) N 2,9 C 3,0 C 0,0 km/h (0 Bft)
25.02.2023 09:00 4,3 C 84 % 1004,9 hPa 0,0 l/m 0,0 km/h (0 Bft) N 1,8 C 4,3 C 2,5 km/h (1 Bft)
25.02.2023 10:00 5,2 C 71 % 1004,7 hPa 0,0 l/m 3,6 km/h (1 Bft) N 0,4 C 5,2 C 6,1 km/h (2 Bft)
25.02.2023 11:00 6,3 C 67 % 1004,6 hPa 0,0 l/m 0,0 km/h (0 Bft) N-NO 0,6 C 6,3 C 2,5 km/h (1 Bft)
25.02.2023 12:00 6,7 C 59 % 1004,0 hPa 0,0 l/m 5,0 km/h (1 Bft) N -0,7 C 6,7 C 9,7 km/h (2 Bft)
25.02.2023 13:00 5,8 C 61 % 1004,3 hPa 0,0 l/m 7,2 km/h (2 Bft) N -1,1 C 5,1 C 14,8 km/h (3 Bft)
25.02.2023 14:00 5,7 C 66 % 1004,2 hPa 0,0 l/m 0,0 km/h (0 Bft) N -0,1 C 5,7 C 2,5 km/h (1 Bft)
25.02.2023 15:00 6,5 C 59 % 1003,9 hPa 0,0 l/m 5,0 km/h (1 Bft) NO -0,9 C 6,5 C 7,2 km/h (2 Bft)
25.02.2023 16:00 5,7 C 60 % 1004,2 hPa 0,0 l/m 3,6 km/h (1 Bft) N -1,4 C 5,7 C 7,2 km/h (2 Bft)
25.02.2023 17:00 4,8 C 67 % 1004,4 hPa 0,0 l/m 0,0 km/h (0 Bft) N -0,8 C 4,8 C 2,5 km/h (1 Bft)
25.02.2023 18:00 3,8 C 76 % 1004,7 hPa 0,0 l/m 0,0 km/h (0 Bft) N -0,0 C 3,8 C 0,0 km/h (0 Bft)
25.02.2023 19:00 2,9 C 81 % 1005,4 hPa 0,0 l/m 0,0 km/h (0 Bft) N-NO -0,0 C 2,9 C 2,5 km/h (1 Bft)
25.02.2023 20:00 3,6 C 76 % 1005,2 hPa 0,0 l/m 3,6 km/h (1 Bft) N -0,2 C 3,6 C 6,1 km/h (2 Bft)
25.02.2023 21:00 3,5 C 80 % 1005,7 hPa 0,0 l/m 1,1 km/h (1 Bft) N-NO 0,4 C 3,5 C 2,5 km/h (1 Bft)
25.02.2023 22:00 3,6 C 75 % 1006,2 hPa 0,0 l/m 5,0 km/h (1 Bft) N-NO -0,4 C 3,6 C 7,2 km/h (2 Bft)
25.02.2023 23:00 3,1 C 69 % 1006,7 hPa 0,0 l/m 1,1 km/h (1 Bft) N-NO -2,0 C 3,1 C 3,6 km/h (1 Bft)
26.02.2023 00:00 2,7 C 64 % 1007,0 hPa 0,0 l/m 6,1 km/h (2 Bft) N-NO -3,4 C 2,7 C 11,2 km/h (2 Bft)
26.02.2023 01:00 0,9 C 69 % 1007,4 hPa 0,0 l/m 3,6 km/h (1 Bft) N -4,1 C 0,9 C 6,1 km/h (2 Bft)
26.02.2023 02:00 -0,4 C 76 % 1007,6 hPa 0,0 l/m 0,0 km/h (0 Bft) N-NO -4,1 C -0,4 C 0,0 km/h (0 Bft)
26.02.2023 03:00 -0,7 C 79 % 1007,6 hPa 0,0 l/m 1,1 km/h (1 Bft) N-NO -3,9 C -0,7 C 2,5 km/h (1 Bft)
26.02.2023 04:00 0,2 C 69 % 1008,0 hPa 0,0 l/m 3,6 km/h (1 Bft) N-NO -4,8 C 0,2 C 6,1 km/h (2 Bft)
26.02.2023 05:00 -0,1 C 69 % 1008,4 hPa 0,0 l/m 3,6 km/h (1 Bft) N-NO -5,1 C -0,1 C 6,1 km/h (2 Bft)
26.02.2023 06:00 -0,8 C 70 % 1008,4 hPa 0,0 l/m 3,6 km/h (1 Bft) NO -5,6 C -0,8 C 6,1 km/h (2 Bft)
26.02.2023 07:00 -1,0 C 70 % 1009,1 hPa 0,0 l/m 1,1 km/h (1 Bft) N-NO -5,8 C -1,0 C 3,6 km/h (1 Bft)
26.02.2023 08:00 -0,6 C 70 % 1009,7 hPa 0,0 l/m 2,5 km/h (1 Bft) NO -5,4 C -0,6 C 6,1 km/h (2 Bft)
26.02.2023 09:00 0,1 C 67 % 1009,9 hPa 0,0 l/m 6,1 km/h (2 Bft) N -5,3 C 0,1 C 11,2 km/h (2 Bft)
26.02.2023 10:00 0,4 C 61 % 1010,1 hPa 0,0 l/m 3,6 km/h (1 Bft) NO -6,2 C 0,4 C 11,2 km/h (2 Bft)
26.02.2023 11:00 1,2 C 62 % 1010,3 hPa 0,0 l/m 3,6 km/h (1 Bft) O-NO -5,3 C 1,2 C 9,7 km/h (2 Bft)
26.02.2023 12:00 0,8 C 70 % 1010,7 hPa 0,0 l/m 3,6 km/h (1 Bft) NO -4,0 C 0,8 C 7,2 km/h (2 Bft)
26.02.2023 13:00 1,6 C 65 % 1010,6 hPa 0,0 l/m 6,1 km/h (2 Bft) O-NO -4,3 C 1,6 C 13,3 km/h (3 Bft)
26.02.2023 14:00 1,4 C 66 % 1010,9 hPa 0,0 l/m 8,6 km/h (2 Bft) S-SO -4,2 C -0,7 C 14,8 km/h (3 Bft)
26.02.2023 15:00 2,1 C 65 % 1010,9 hPa 0,0 l/m 3,6 km/h (1 Bft) N-NO -3,8 C 2,1 C 7,2 km/h (2 Bft)
26.02.2023 16:00 1,7 C 70 % 1011,3 hPa 0,0 l/m 8,6 km/h (2 Bft) O-NO -3,2 C -0,4 C 14,8 km/h (3 Bft)
26.02.2023 17:00 1,9 C 64 % 1011,8 hPa 0,0 l/m 6,1 km/h (2 Bft) N -4,2 C 1,9 C 14,8 km/h (3 Bft)
26.02.2023 18:00 1,9 C 60 % 1012,4 hPa 0,0 l/m 6,1 km/h (2 Bft) NO -5,0 C 1,9 C 13,3 km/h (3 Bft)
26.02.2023 19:00 1,7 C 62 % 1012,9 hPa 0,0 l/m 3,6 km/h (1 Bft) O-NO -4,8 C 1,7 C 7,2 km/h (2 Bft)
26.02.2023 20:00 1,6 C 59 % 1013,6 hPa 0,0 l/m 3,6 km/h (1 Bft) N-NO -5,5 C 1,6 C 9,7 km/h (2 Bft)
26.02.2023 21:00 1,2 C 62 % 1013,9 hPa 0,0 l/m 5,0 km/h (1 Bft) N -5,3 C 1,2 C 7,2 km/h (2 Bft)
26.02.2023 22:00 1,0 C 62 % 1013,9 hPa 0,0 l/m 7,2 km/h (2 Bft) NO -5,4 C 0,2 C 11,2 km/h (2 Bft)
26.02.2023 23:00 0,8 C 64 % 1014,0 hPa 0,0 l/m 1,1 km/h (1 Bft) NO -5,2 C 0,8 C 3,6 km/h (1 Bft)
Min-Datum _ 26.02.23 20.02.23 24.02.23 - 20.02.23 - 26.02.23 26.02.23 20.02.23
_ Min-Zeit 07:37 16:37 17:37 - 02:37 - 10:37 07:37 03:37
Minimum _ -1,0 C 47 % 1000,5 hPa - 0,0 km/h (0 Bft) - -6,2 C -1,0 C 0,0 km/h (0 Bft)
Max-Datum _ 21.02.23 24.02.23 22.02.23 24.02.23 22.02.23 - 23.02.23 21.02.23 22.02.23
_ Max-Zeit 15:37 02:37 16:37 20:37 13:37 - 12:37 15:37 11:37
Maximum _ 17,1 C 99 % 1086,4 hPa 3,0 l/m 12,2 km/h
W-SW (2 Bft)
- 9,8 C 17,1 C 17,3 km/h
W-SW (3 Bft)
Durchschnitt _ 6,4 C 81 % 1011,5 hPa #13,8 l/m 2,1 km/h (1 Bft) N-NO 3,2 C 6,3 C 4,3 km/h (1 Bft)
www.sexauwetter.de